Time;durP1;ratioP1;P1;durP2;ratioP2;P2;SDS_P1;SDS_P2;PMS_P1;PMS_P2;Temp;Humidity;BMP_temperature;BMP_pressure;BME280_temperature;BME280_humidity;BME280_pressure;Samples;Min_cycle;Max_cycle;Signal;HPM_P1;HPM_P2
2023/02/16 00:01:50;;;;;;;8.97;3.40;;;2.90;99.90;;;;;;6218396;23;20012;-89
2023/02/16 00:04:28;;;;;;;9.00;3.20;;;3.70;99.90;;;;;;6219281;23;20008;-89
2023/02/16 00:06:54;;;;;;;9.50;3.13;;;0.80;99.90;;;;;;6217098;23;20008;-89
2023/02/16 00:09:24;;;;;;;8.40;3.10;;;3.10;99.90;;;;;;6246012;23;20075;-88
2023/02/16 00:14:37;;;;;;;11.20;3.93;;;5.00;99.90;;;;;;6246437;22;20043;-88
2023/02/16 00:17:09;;;;;;;11.27;4.03;;;2.70;99.90;;;;;;6245947;23;20000;-90
2023/02/16 00:19:37;;;;;;;10.40;3.08;;;2.40;99.90;;;;;;6245770;23;20007;-90
2023/02/16 00:22:05;;;;;;;10.43;3.53;;;2.00;99.90;;;;;;6244531;23;20004;-89
2023/02/16 00:24:31;;;;;;;9.40;3.40;;;1.40;99.90;;;;;;6245642;22;20031;-89
2023/02/16 00:28:00;;;;;;;;;;;;;;;;;;;;;
2023/02/16 00:44:55;;;;;;;10.23;3.50;;;3.30;99.90;;;;;;6263813;22;20015;-89
2023/02/16 00:47:56;;;;;;;9.33;3.40;;;2.80;99.90;;;;;;6254072;23;20000;-87
2023/02/16 00:51:13;;;;;;;;;;;;;;;;;;;;;
2023/02/16 00:58:09;;;;;;;8.83;3.70;;;2.90;99.90;;;;;;6112272;23;20007;-88
2023/02/16 01:03:49;;;;;;;11.50;3.60;;;2.80;99.90;;;;;;6262462;22;19906;-87
2023/02/16 01:12:32;;;;;;;8.93;3.33;;;4.10;99.90;;;;;;6256526;23;20015;-89
2023/02/16 01:18:48;;;;;;;11.90;3.80;;;1.40;99.90;;;;;;6264588;23;20004;-89
2023/02/16 01:21:40;;;;;;;12.57;3.53;;;2.20;99.90;;;;;;6233760;23;20019;-89
2023/02/16 01:24:53;;;;;;;;;;;;;;;;;;;;;
2023/02/16 01:27:58;;;;;;;16.27;3.80;;;1.70;99.90;;;;;;6259689;23;20007;-89
2023/02/16 01:36:44;;;;;;;8.47;2.80;;;2.30;99.90;;;;;;6250474;23;20010;-88
2023/02/16 01:39:30;;;;;;;8.27;3.10;;;1.60;99.90;;;;;;6253919;23;20056;-88
2023/02/16 01:42:18;;;;;;;8.70;4.00;;;4.80;99.90;;;;;;6253980;23;20362;-87
2023/02/16 01:45:29;;;;;;;9.03;3.50;;;2.50;99.90;;;;;;6227522;23;20004;-89
2023/02/16 01:48:31;;;;;;;12.77;3.13;;;2.50;99.90;;;;;;6103045;23;20006;-89
2023/02/16 01:51:44;;;;;;;9.50;3.53;;;2.60;99.90;;;;;;6077848;23;20038;-89
2023/02/16 01:57:11;;;;;;;11.43;3.17;;;1.80;99.90;;;;;;6275178;22;20403;-89
2023/02/16 01:59:48;;;;;;;7.37;3.33;;;4.00;99.90;;;;;;6248193;22;20000;-88
2023/02/16 02:02:27;;;;;;;7.50;3.17;;;1.80;99.90;;;;;;6249379;22;20000;-89
2023/02/16 02:07:59;;;;;;;9.70;3.10;;;4.50;99.90;;;;;;6245676;23;20019;-90
2023/02/16 02:10:49;;;;;;;11.50;3.73;;;2.20;99.90;;;;;;6244153;23;20004;-89
2023/02/16 02:13:56;;;;;;;7.73;2.93;;;2.80;99.90;;;;;;6244015;23;20004;-90
2023/02/16 02:16:51;;;;;;;8.33;2.93;;;2.80;99.90;;;;;;6245677;22;20000;-89
2023/02/16 02:19:22;;;;;;;9.70;2.93;;;3.10;99.90;;;;;;6244013;23;20096;-90
2023/02/16 02:25:47;;;;;;;10.40;4.03;;;1.60;99.90;;;;;;6246689;23;20153;-88
2023/02/16 02:28:44;;;;;;;9.03;3.37;;;1.70;99.90;;;;;;6245130;22;20000;-89
2023/02/16 02:31:37;;;;;;;7.70;2.37;;;1.70;99.90;;;;;;6243555;23;20050;-89
2023/02/16 02:34:16;;;;;;;6.80;3.03;;;2.10;99.90;;;;;;6243621;22;20091;-90
2023/02/16 02:37:17;;;;;;;14.93;3.20;;;3.20;99.90;;;;;;6244911;23;20062;-90
2023/02/16 02:39:59;;;;;;;8.43;2.90;;;1.20;99.90;;;;;;6192112;22;20007;-89
2023/02/16 02:42:50;;;;;;;9.75;3.20;;;1.90;99.90;;;;;;6246392;22;20015;-89
2023/02/16 02:45:31;;;;;;;6.60;2.27;;;1.80;99.90;;;;;;6249414;23;20438;-90
2023/02/16 02:48:04;;;;;;;6.93;2.63;;;1.10;99.90;;;;;;6249832;23;20015;-89
2023/02/16 02:50:40;;;;;;;9.40;2.97;;;1.00;99.90;;;;;;6252329;22;20083;-89
2023/02/16 02:53:12;;;;;;;6.63;2.33;;;1.30;99.90;;;;;;6245726;23;20004;-89
2023/02/16 03:01:25;;;;;;;4.63;2.27;;;2.00;99.90;;;;;;6245574;23;20091;-89
2023/02/16 03:03:55;;;;;;;7.77;2.37;;;2.70;99.90;;;;;;6246954;22;20056;-89
2023/02/16 03:06:33;;;;;;;8.93;2.70;;;1.30;99.90;;;;;;6245379;23;20004;-89
2023/02/16 03:09:40;;;;;;;6.90;2.40;;;1.60;99.90;;;;;;6247275;22;20304;-90
2023/02/16 03:15:09;;;;;;;4.87;2.03;;;0.20;99.90;;;;;;6246468;23;20014;-89
2023/02/16 03:29:19;;;;;;;9.40;2.50;;;1.30;99.90;;;;;;6246437;23;20011;-90
2023/02/16 03:31:56;;;;;;;6.27;2.17;;;1.40;99.90;;;;;;6244400;23;20000;-88
2023/02/16 03:37:19;;;;;;;5.15;2.13;;;1.60;99.90;;;;;;6243614;22;20008;-89
2023/02/16 03:42:51;;;;;;;8.17;2.40;;;1.20;99.90;;;;;;6221673;22;20008;-89
2023/02/16 03:45:43;;;;;;;6.63;2.17;;;2.40;99.90;;;;;;6245078;23;20000;-89
2023/02/16 03:48:11;;;;;;;6.93;2.37;;;2.90;99.90;;;;;;6246789;22;20083;-89
2023/02/16 03:50:40;;;;;;;7.03;2.30;;;1.90;99.90;;;;;;6269858;22;20438;-90
2023/02/16 03:53:20;;;;;;;8.00;2.50;;;0.30;99.90;;;;;;6270182;22;20004;-90
2023/02/16 03:55:51;;;;;;;9.10;2.53;;;0.60;99.90;;;;;;6244219;23;20015;-89
2023/02/16 03:58:26;;;;;;;7.90;3.13;;;2.30;99.90;;;;;;6244932;23;20004;-88
2023/02/16 04:00:55;;;;;;;5.60;2.30;;;0.70;99.90;;;;;;6244424;23;20004;-89
2023/02/16 04:03:36;;;;;;;8.27;2.33;;;1.00;99.90;;;;;;6244303;22;20046;-88
2023/02/16 04:06:07;;;;;;;6.63;2.10;;;1.20;99.90;;;;;;6244407;23;20000;-90
2023/02/16 04:08:44;;;;;;;5.70;1.57;;;1.10;99.90;;;;;;6242902;23;20024;-88
2023/02/16 04:14:18;;;;;;;5.93;2.13;;;1.20;99.90;;;;;;6245371;23;20027;-88
2023/02/16 04:16:46;;;;;;;6.43;2.40;;;1.20;99.90;;;;;;6243734;23;20014;-89
2023/02/16 04:19:20;;;;;;;5.57;2.50;;;1.10;99.90;;;;;;6244926;23;20019;-88
2023/02/16 04:21:45;;;;;;;6.67;2.40;;;1.10;99.90;;;;;;6244075;23;20007;-88
2023/02/16 04:24:19;;;;;;;7.60;2.13;;;0.90;99.90;;;;;;6244459;22;20008;-89
2023/02/16 04:26:50;;;;;;;7.50;2.10;;;2.00;99.90;;;;;;6243919;23;20000;-89
2023/02/16 04:29:42;;;;;;;11.10;2.70;;;1.10;99.90;;;;;;6244715;22;20079;-88
2023/02/16 04:32:07;;;;;;;6.93;2.53;;;1.20;99.90;;;;;;6269379;22;20001;-89
2023/02/16 04:34:43;;;;;;;10.50;3.20;;;0.90;99.90;;;;;;6244008;22;20012;-88
2023/02/16 04:37:17;;;;;;;6.60;2.10;;;1.60;99.90;;;;;;6245516;22;20331;-89
2023/02/16 04:39:49;;;;;;;6.47;2.63;;;2.00;99.90;;;;;;6244463;23;20004;-90
2023/02/16 04:42:25;;;;;;;7.15;2.55;;;0.80;99.90;;;;;;6243409;22;20004;-89
2023/02/16 04:45:14;;;;;;;6.60;2.07;;;1.10;99.90;;;;;;6244818;23;20008;-89
2023/02/16 04:47:40;;;;;;;6.57;2.20;;;0.90;99.90;;;;;;6244607;23;20027;-89
2023/02/16 04:50:07;;;;;;;6.23;2.07;;;1.10;99.90;;;;;;6244533;23;20012;-88
2023/02/16 04:52:46;;;;;;;6.83;2.13;;;0.90;99.90;;;;;;6243963;22;20011;-89
2023/02/16 04:55:14;;;;;;;6.00;2.13;;;1.90;99.90;;;;;;6244679;23;20007;-88
2023/02/16 04:57:46;;;;;;;6.63;2.37;;;1.90;99.90;;;;;;6243745;22;20506;-89
2023/02/16 05:00:18;;;;;;;8.93;2.53;;;2.30;99.90;;;;;;6245346;23;20450;-88
2023/02/16 05:03:00;;;;;;;4.60;2.03;;;0.80;99.90;;;;;;6245736;23;20039;-89
2023/02/16 05:05:47;;;;;;;7.50;2.67;;;0.80;99.90;;;;;;6245219;23;20000;-89
2023/02/16 05:08:15;;;;;;;6.63;2.20;;;1.80;99.90;;;;;;6244508;23;20004;-88
2023/02/16 05:16:31;;;;;;;9.43;1.90;;;1.60;99.90;;;;;;6246119;23;20072;-87
2023/02/16 05:19:21;;;;;;;7.40;2.93;;;0.70;99.90;;;;;;6267929;22;20131;-89
2023/02/16 05:21:50;;;;;;;9.83;2.80;;;0.80;99.90;;;;;;6243316;23;20031;-89
2023/02/16 05:27:15;;;;;;;8.53;2.73;;;0.70;99.90;;;;;;6245074;22;20069;-89
2023/02/16 05:29:44;;;;;;;6.43;2.40;;;1.60;99.90;;;;;;6243635;23;20008;-88
2023/02/16 05:35:43;;;;;;;8.47;2.63;;;0.60;99.90;;;;;;6233500;22;20525;-90
2023/02/16 05:38:25;;;;;;;12.13;3.20;;;0.40;99.90;;;;;;6243757;22;20007;-89
2023/02/16 05:41:50;;;;;;;7.40;2.35;;;0.20;99.90;;;;;;6243089;23;20000;-89
2023/02/16 05:44:38;;;;;;;6.50;2.57;;;0.50;99.90;;;;;;6196052;22;20015;-88
2023/02/16 05:47:34;;;;;;;;;;;;;;;;;;;;;
2023/02/16 05:53:40;;;;;;;7.90;3.13;;;0.60;99.90;;;;;;6222824;22;20533;-88
2023/02/16 05:56:12;;;;;;;8.97;2.97;;;0.20;99.90;;;;;;6247114;22;20007;-88
2023/02/16 05:59:09;;;;;;;6.90;2.55;;;0.50;99.90;;;;;;6248134;22;20038;-90
2023/02/16 06:02:28;;;;;;;7.13;2.80;;;1.10;99.90;;;;;;6259536;22;20000;-88
2023/02/16 06:05:11;;;;;;;5.67;2.13;;;1.20;99.90;;;;;;6249587;22;20038;-89
2023/02/16 06:09:00;;;;;;;;;;;;;;;;;;;;;
2023/02/16 06:16:25;;;;;;;;;;;;;;;;;;;;;
2023/02/16 06:19:15;;;;;;;5.60;2.90;;;0.60;99.90;;;;;;6134658;22;20044;-87
2023/02/16 06:22:03;;;;;;;;;;;;;;;;;;;;;
2023/02/16 06:24:51;;;;;;;7.43;2.80;;;0.40;99.90;;;;;;6275360;22;20110;-87
2023/02/16 06:27:31;;;;;;;8.37;3.43;;;0.40;99.90;;;;;;6256978;22;20430;-87
2023/02/16 06:30:03;;;;;;;7.73;2.40;;;0.50;99.90;;;;;;6277012;22;20000;-87
2023/02/16 06:33:00;;;;;;;9.82;3.45;;;0.00;99.90;;;;;;6246136;22;20473;-88
2023/02/16 06:35:37;;;;;;;7.93;3.23;;;0.80;99.90;;;;;;6247597;22;20445;-88
2023/02/16 06:41:47;;;;;;;8.47;3.27;;;1.80;99.90;;;;;;6191387;22;20006;-88
2023/02/16 06:44:58;;;;;;;;;;;;;;;;;;;;;
2023/02/16 06:47:47;;;;;;;5.83;2.17;;;0.70;99.90;;;;;;6277894;22;20056;-90
2023/02/16 06:53:48;;;;;;;8.60;2.93;;;0.30;99.90;;;;;;6293416;22;20026;-88
2023/02/16 06:56:27;;;;;;;15.20;3.27;;;1.70;99.90;;;;;;6256544;22;20003;-88
2023/02/16 06:59:02;;;;;;;8.50;2.47;;;0.60;99.90;;;;;;6261955;22;20007;-87
2023/02/16 07:01:50;;;;;;;7.93;2.90;;;1.50;99.90;;;;;;6297017;22;20017;-87
2023/02/16 07:04:23;;;;;;;6.83;2.53;;;1.30;99.90;;;;;;6273447;22;20003;-84
2023/02/16 07:07:10;;;;;;;10.30;2.60;;;1.00;99.90;;;;;;6272122;22;19995;-89
2023/02/16 07:09:50;;;;;;;7.97;2.83;;;0.60;99.90;;;;;;6274116;22;19992;-86
2023/02/16 07:12:50;;;;;;;9.47;3.20;;;0.50;99.90;;;;;;6275561;22;20115;-87
2023/02/16 07:21:32;;;;;;;10.33;3.57;;;0.70;99.90;;;;;;6297867;22;20022;-87
2023/02/16 07:26:37;;;;;;;8.17;3.33;;;0.80;99.90;;;;;;6236871;23;20020;-88
2023/02/16 07:29:08;;;;;;;7.47;3.47;;;0.50;99.90;;;;;;6202922;23;20005;-87
2023/02/16 07:31:44;;;;;;;8.00;2.63;;;0.90;99.90;;;;;;6204468;23;20031;-87
2023/02/16 07:34:22;;;;;;;9.80;3.07;;;1.50;99.90;;;;;;6215485;23;19988;-87
2023/02/16 07:37:25;;;;;;;9.37;2.93;;;2.00;99.90;;;;;;6239688;23;20006;-88
2023/02/16 07:39:59;;;;;;;8.73;2.88;;;1.60;99.90;;;;;;6176613;23;20001;-85
2023/02/16 07:42:45;;;;;;;14.00;3.17;;;2.10;99.90;;;;;;6147651;23;20030;-88
2023/02/16 07:45:34;;;;;;;;;;;;;;;;;;;;;
2023/02/16 07:48:07;;;;;;;12.77;2.97;;;1.30;99.90;;;;;;6151329;23;20089;-87
2023/02/16 07:51:07;;;;;;;7.40;3.22;;;1.50;99.90;;;;;;6159595;23;20009;-88
2023/02/16 07:53:33;;;;;;;9.33;2.97;;;1.70;99.90;;;;;;6164553;23;20004;-89
2023/02/16 07:55:59;;;;;;;9.60;2.53;;;2.50;99.90;;;;;;6218965;23;20066;-89
2023/02/16 07:58:28;;;;;;;8.23;2.73;;;2.50;99.90;;;;;;6218374;23;20003;-88
2023/02/16 08:01:07;;;;;;;10.20;3.90;;;1.80;99.90;;;;;;6218877;23;20012;-88
2023/02/16 08:03:33;;;;;;;8.43;2.87;;;1.90;99.90;;;;;;6215923;23;20135;-89
2023/02/16 08:06:02;;;;;;;10.27;3.40;;;2.30;99.90;;;;;;6218154;23;20007;-88
2023/02/16 08:08:30;;;;;;;7.80;3.40;;;2.30;99.90;;;;;;6242548;23;20000;-89
2023/02/16 08:10:56;;;;;;;10.80;4.07;;;2.00;99.90;;;;;;6218328;23;20004;-90
2023/02/16 08:13:22;;;;;;;10.00;3.27;;;3.00;99.90;;;;;;6218507;23;20008;-87
2023/02/16 08:15:48;;;;;;;13.67;4.17;;;2.80;99.90;;;;;;6218419;23;20115;-88
2023/02/16 08:18:19;;;;;;;9.37;3.40;;;2.60;99.90;;;;;;6214363;23;20043;-89
2023/02/16 08:20:44;;;;;;;9.90;3.30;;;2.70;99.90;;;;;;6219851;22;20019;-87
2023/02/16 08:23:10;;;;;;;12.37;3.57;;;2.70;99.90;;;;;;6248309;22;20046;-87
2023/02/16 08:25:36;;;;;;;7.50;3.67;;;2.90;99.90;;;;;;6247919;22;19996;-88
2023/02/16 08:28:02;;;;;;;9.43;3.87;;;3.00;99.90;;;;;;6248002;22;20000;-88
2023/02/16 08:30:28;;;;;;;9.90;3.70;;;3.20;99.90;;;;;;6248336;22;20000;-87
2023/02/16 08:32:59;;;;;;;10.00;4.23;;;3.30;99.90;;;;;;6244334;22;20442;-88
2023/02/16 08:35:26;;;;;;;10.47;3.30;;;3.40;99.90;;;;;;6244906;22;20054;-87
2023/02/16 08:37:51;;;;;;;10.40;3.73;;;3.60;99.90;;;;;;6247191;22;20003;-88
2023/02/16 08:40:17;;;;;;;8.63;3.77;;;3.70;99.90;;;;;;6246253;22;20032;-87
2023/02/16 08:42:43;;;;;;;9.87;3.17;;;3.80;99.90;;;;;;6244976;22;20334;-89
2023/02/16 08:45:09;;;;;;;9.03;3.63;;;3.80;99.90;;;;;;6246901;22;20000;-88
2023/02/16 08:47:35;;;;;;;11.30;3.03;;;4.00;99.90;;;;;;6246887;22;20011;-88
2023/02/16 08:50:01;;;;;;;11.50;3.43;;;4.00;99.90;;;;;;6273625;22;20006;-88
2023/02/16 08:52:26;;;;;;;12.23;3.63;;;4.20;99.90;;;;;;6273333;22;20888;-88
2023/02/16 08:54:52;;;;;;;11.30;4.40;;;5.50;99.90;;;;;;6246506;22;20102;-88
2023/02/16 08:57:18;;;;;;;10.03;3.53;;;4.40;99.90;;;;;;6245450;22;20031;-88
2023/02/16 08:59:44;;;;;;;17.53;4.33;;;5.00;99.90;;;;;;6245827;22;20456;-87
2023/02/16 09:02:10;;;;;;;12.30;4.53;;;4.80;99.90;;;;;;6245486;22;20456;-88
2023/02/16 09:04:36;;;;;;;10.07;3.57;;;4.70;99.90;;;;;;6246005;22;20007;-88
2023/02/16 09:07:02;;;;;;;7.97;3.10;;;4.70;99.90;;;;;;6245629;22;20446;-88
2023/02/16 09:09:28;;;;;;;7.23;2.97;;;5.00;99.90;;;;;;6273694;22;20497;-88
2023/02/16 09:11:53;;;;;;;11.07;3.27;;;5.10;99.90;;;;;;6245286;22;20031;-88
2023/02/16 09:14:20;;;;;;;8.90;3.40;;;6.10;99.90;;;;;;6245255;22;20014;-88
2023/02/16 09:16:47;;;;;;;10.07;3.47;;;5.00;99.90;;;;;;6246488;22;20013;-89
2023/02/16 09:19:16;;;;;;;6.87;3.00;;;5.40;99.90;;;;;;6245563;22;20346;-89
2023/02/16 09:21:41;;;;;;;7.50;3.10;;;6.90;99.90;;;;;;6246045;22;20020;-90
2023/02/16 09:24:07;;;;;;;8.60;3.33;;;5.60;99.90;;;;;;6245333;22;20438;-90
2023/02/16 09:26:37;;;;;;;9.50;3.13;;;5.60;99.90;;;;;;6247238;22;20004;-89
2023/02/16 09:29:04;;;;;;;9.03;3.07;;;5.70;99.90;;;;;;6247222;22;20083;-89
2023/02/16 09:31:34;;;;;;;8.60;3.03;;;5.50;99.90;;;;;;6247251;22;20007;-89
2023/02/16 09:34:15;;;;;;;8.27;3.80;;;5.60;99.90;;;;;;6247884;22;20394;-89
2023/02/16 09:36:41;;;;;;;8.93;3.10;;;6.20;99.90;;;;;;6248191;22;20003;-88
2023/02/16 09:39:08;;;;;;;10.60;3.83;;;6.10;99.90;;;;;;6274945;22;20438;-89
2023/02/16 09:41:58;;;;;;;11.43;3.70;;;6.20;99.90;;;;;;6247315;22;20346;-89
2023/02/16 09:44:40;;;;;;;11.40;3.60;;;6.60;99.90;;;;;;6249260;22;20014;-89
2023/02/16 09:47:28;;;;;;;8.35;3.58;;;6.70;99.90;;;;;;6248303;22;20465;-89
2023/02/16 09:49:57;;;;;;;8.53;3.03;;;6.90;99.90;;;;;;6247448;22;20000;-90
2023/02/16 09:52:39;;;;;;;9.10;3.07;;;7.60;99.90;;;;;;6247084;22;20007;-89
2023/02/16 09:55:12;;;;;;;6.85;2.60;;;7.70;99.90;;;;;;6274864;22;20003;-88
2023/02/16 09:57:38;;;;;;;7.57;3.17;;;7.40;99.90;;;;;;6247221;22;20057;-88
2023/02/16 10:00:13;;;;;;;10.18;3.50;;;7.30;99.90;;;;;;6247586;22;20003;-89
2023/02/16 10:03:12;;;;;;;13.15;3.72;;;7.60;99.90;;;;;;6247184;22;20027;-89
2023/02/16 10:06:04;;;;;;;8.40;3.25;;;7.80;99.90;;;;;;6275015;22;20007;-90
2023/02/16 10:09:04;;;;;;;6.40;2.77;;;7.90;99.90;;;;;;6247111;22;20083;-88
2023/02/16 10:11:37;;;;;;;8.27;2.72;;;8.10;99.90;;;;;;6225088;22;20000;-88
2023/02/16 10:14:17;;;;;;;9.50;2.33;;;7.90;99.90;;;;;;6273860;22;20004;-89
2023/02/16 10:17:05;;;;;;;8.63;3.25;;;8.30;99.90;;;;;;6273515;22;20000;-89
2023/02/16 10:20:20;;;;;;;8.45;2.90;;;8.40;99.90;;;;;;6246662;22;20008;-88
2023/02/16 10:22:56;;;;;;;7.63;2.58;;;8.50;99.90;;;;;;6262333;22;20590;-86
2023/02/16 10:25:38;;;;;;;8.95;2.90;;;8.70;99.90;;;;;;6274164;22;19996;-86
